Huvudsida
METAR-TAF:

METAR-TAF

Flygplatser :

Malmö Airport

Malmö, Sverige

latitud: 55-33N, longitud: 013-22E, höjd: 106 m

Aktuellt väderrapport

Denna rapport gjordes för 19 minuter sedan, klockan 16:50 UTC
Vind 11 kt från väst/nordväst
Temperatur 18°C
Fuktighet 83%
Tryck 1014 hPa
Sikt 10 km eller mer
Få moln på en höjd av 2200 ft
Brutna moln på en höjd av 4000 ft

METAR: ESMS 071650Z 30011KT 9999 FEW022 BKN040 18/15 Q1014 RERA

Tid: 19:09 (17:09 UTC)

Väderprognos

Denna rapport gjordes för 3 timmar och 6 minuter sedan, klockan 14:03 UTC
Prognos gäller från 07 kl. 15 UTC till 08 kl. 15 UTC
Vind 12 kt från väst/nordväst
Sikt 10 km eller mer
Brutna moln på en höjd av 4000 ft
Temporärt
från 07 kl. 15 UTC till 07 kl. 18 UTC
Spridda moln på en höjd av 2000 ft, Högtornande cumulus.

TAF: ESMS 071403Z 0715/0815 30012KT 9999 BKN040 TEMPO 0715/0718 SCT020TCU

Aktuella väderrapporter och prognoser från 4000 flygplatser (METAR- och TAF-rapporter).

De tillgängliga stationerna syns som gula och röda prickar på kartan.

För musen över prickarna för att se namnen på stationerna.

Klicka sedan för att få väderrapporter och prognoser.

För att ändra kartan: Klicka på de gröna knapparna med ett svart kors på för att zooma in; den gröna knappen med ett streck på för att zooma ut; eller på de gröna pilarna för angränsande kartor.


METAR-TAF: